Time;durP1;ratioP1;P1;durP2;ratioP2;P2;SDS_P1;SDS_P2;PMS_P1;PMS_P2;Temp;Humidity;BMP_temperature;BMP_pressure;BME280_temperature;BME280_humidity;BME280_pressure;Samples;Min_cycle;Max_cycle;Signal;HPM_P1;HPM_P2
2021/09/17 04:32:10;;;;;;;8.33;6.53;;;13.10;99.90;;;;;;5459618;23;21000;-79
2021/09/17 04:34:35;;;;;;;6.20;5.60;;;13.10;99.90;;;;;;5034763;28;20450;-81
2021/09/17 04:37:01;;;;;;;6.57;5.87;;;13.00;99.90;;;;;;5038085;28;20205;-80
2021/09/17 04:39:26;;;;;;;8.10;6.30;;;13.00;99.90;;;;;;5040379;28;20208;-82
2021/09/17 04:41:52;;;;;;;9.20;6.23;;;13.00;99.90;;;;;;5037442;28;20267;-82
2021/09/17 04:44:17;;;;;;;8.30;6.03;;;12.90;99.90;;;;;;5038644;28;20270;-81
2021/09/17 04:46:43;;;;;;;6.63;5.73;;;12.90;99.90;;;;;;5037801;28;20205;-82
2021/09/17 04:49:08;;;;;;;6.20;5.50;;;12.90;99.90;;;;;;5038558;28;20209;-81
2021/09/17 04:51:34;;;;;;;6.50;5.90;;;12.80;99.90;;;;;;5034667;28;20214;-80
2021/09/17 04:54:00;;;;;;;9.30;6.40;;;12.80;99.90;;;;;;5037761;28;20451;-82
2021/09/17 04:56:25;;;;;;;8.50;5.90;;;12.70;99.90;;;;;;5018794;28;20190;-81
2021/09/17 04:58:51;;;;;;;5.90;5.30;;;12.70;99.90;;;;;;5038123;28;20178;-82
2021/09/17 05:01:16;;;;;;;11.53;5.13;;;12.60;99.90;;;;;;5036826;28;20214;-77
2021/09/17 05:03:43;;;;;;;6.83;6.10;;;12.60;99.90;;;;;;5016930;28;20190;-77
2021/09/17 05:06:09;;;;;;;7.10;6.40;;;12.50;99.90;;;;;;5031395;28;20189;-77
2021/09/17 05:08:35;;;;;;;9.00;7.40;;;12.60;99.90;;;;;;5033346;28;20506;-76
2021/09/17 05:11:00;;;;;;;7.70;7.00;;;12.50;99.90;;;;;;5032347;28;20790;-76
2021/09/17 05:13:26;;;;;;;9.60;8.00;;;12.50;99.90;;;;;;5029194;28;20212;-76
2021/09/17 05:15:51;;;;;;;6.53;5.30;;;12.40;99.90;;;;;;5034740;28;20176;-78
2021/09/17 05:18:17;;;;;;;6.53;5.77;;;12.40;99.90;;;;;;5032647;28;20268;-77
2021/09/17 05:20:42;;;;;;;7.23;6.27;;;12.40;99.90;;;;;;5034813;28;20261;-78
2021/09/17 05:23:08;;;;;;;7.00;6.33;;;12.40;99.90;;;;;;5031931;28;20190;-74
2021/09/17 05:25:33;;;;;;;11.33;6.60;;;12.30;99.90;;;;;;5014291;28;20611;-78
2021/09/17 05:27:59;;;;;;;7.73;7.03;;;12.30;99.90;;;;;;5032377;28;20193;-76
2021/09/17 05:30:25;;;;;;;7.23;6.63;;;12.30;99.90;;;;;;5034260;28;20218;-76
2021/09/17 05:32:50;;;;;;;8.43;6.80;;;12.20;99.90;;;;;;5014588;28;20200;-77
2021/09/17 05:35:16;;;;;;;8.90;6.30;;;12.20;99.90;;;;;;5033389;28;20212;-75
2021/09/17 05:37:42;;;;;;;9.43;7.07;;;12.10;99.90;;;;;;5032397;28;20176;-78
2021/09/17 05:40:08;;;;;;;6.97;6.27;;;12.20;99.90;;;;;;5029692;28;20799;-78
2021/09/17 05:42:34;;;;;;;8.10;5.83;;;12.20;99.90;;;;;;5014487;28;20738;-78
2021/09/17 05:45:00;;;;;;;6.47;5.87;;;12.20;99.90;;;;;;5030180;28;20546;-79
2021/09/17 05:47:25;;;;;;;6.93;5.77;;;12.20;99.90;;;;;;5034164;28;20646;-77
2021/09/17 05:49:51;;;;;;;7.87;6.03;;;12.30;99.90;;;;;;5031696;28;20221;-75
2021/09/17 05:52:17;;;;;;;6.17;5.63;;;12.30;99.90;;;;;;5015877;28;20201;-78
2021/09/17 05:54:43;;;;;;;10.67;6.27;;;12.30;99.90;;;;;;5029442;28;20210;-75
2021/09/17 05:57:08;;;;;;;7.67;6.97;;;12.40;99.90;;;;;;5029343;28;20421;-78
2021/09/17 05:59:34;;;;;;;7.33;6.60;;;12.40;99.90;;;;;;5025218;28;20619;-78
2021/09/17 06:02:00;;;;;;;10.80;6.53;;;12.50;99.90;;;;;;5013938;28;20191;-77
2021/09/17 06:04:25;;;;;;;9.33;8.37;;;12.60;99.90;;;;;;5018499;28;20436;-78
2021/09/17 06:06:51;;;;;;;8.80;7.90;;;12.70;99.90;;;;;;5033034;28;20194;-79
2021/09/17 06:09:16;;;;;;;7.83;7.13;;;12.70;99.90;;;;;;5012934;28;20236;-78
2021/09/17 06:11:42;;;;;;;9.20;7.20;;;12.80;99.90;;;;;;5032327;28;20212;-79
2021/09/17 06:14:08;;;;;;;10.90;8.70;;;12.90;99.90;;;;;;5033262;28;20235;-77
2021/09/17 06:16:36;;;;;;;9.80;8.60;;;13.00;99.90;;;;;;5027916;28;20634;-79
2021/09/17 06:19:03;;;;;;;7.90;7.20;;;13.10;99.90;;;;;;5035122;28;20259;-76
2021/09/17 06:21:30;;;;;;;9.07;8.13;;;13.30;99.90;;;;;;5031185;28;20855;-77
2021/09/17 06:23:57;;;;;;;9.37;8.23;;;13.40;99.90;;;;;;5033521;28;20420;-77
2021/09/17 06:26:22;;;;;;;10.93;7.23;;;13.40;99.90;;;;;;5028918;28;20441;-79
2021/09/17 06:28:48;;;;;;;9.13;7.07;;;13.50;99.90;;;;;;5034539;28;20463;-80
2021/09/17 06:31:14;;;;;;;8.80;7.60;;;13.50;99.90;;;;;;5026493;28;20211;-76
2021/09/17 06:33:39;;;;;;;8.40;7.70;;;13.60;99.90;;;;;;5012924;28;20213;-75
2021/09/17 06:36:05;;;;;;;8.10;6.60;;;13.70;99.90;;;;;;5030869;28;20475;-79
2021/09/17 06:38:30;;;;;;;8.27;7.20;;;13.70;99.90;;;;;;5031963;28;20293;-79
2021/09/17 06:40:56;;;;;;;7.73;6.90;;;13.80;99.90;;;;;;5026726;28;20207;-78
2021/09/17 06:43:22;;;;;;;11.50;8.73;;;13.90;99.90;;;;;;5033288;28;20189;-78
2021/09/17 06:45:48;;;;;;;10.97;7.87;;;14.00;99.90;;;;;;5031674;28;20217;-76
2021/09/17 06:48:16;;;;;;;7.63;6.93;;;14.10;99.90;;;;;;5030625;28;20242;-78
2021/09/17 06:50:43;;;;;;;11.30;7.27;;;14.20;99.90;;;;;;5032607;28;20561;-77
2021/09/17 06:53:08;;;;;;;11.10;6.97;;;14.40;99.90;;;;;;5012945;28;20438;-77
2021/09/17 06:55:34;;;;;;;10.60;8.37;;;14.40;99.90;;;;;;5030392;28;20789;-77
2021/09/17 06:58:02;;;;;;;8.87;8.00;;;14.50;99.90;;;;;;5030261;28;20200;-77
2021/09/17 07:00:30;;;;;;;8.43;7.63;;;14.60;99.90;;;;;;5032452;28;20190;-76
2021/09/17 07:02:56;;;;;;;9.67;8.67;;;14.60;99.90;;;;;;5030485;28;20436;-78
2021/09/17 07:05:23;;;;;;;8.23;7.27;;;14.70;99.90;;;;;;5032422;28;20475;-77
2021/09/17 07:07:49;;;;;;;10.03;7.30;;;14.80;99.90;;;;;;5029578;28;20451;-77
2021/09/17 07:10:17;;;;;;;11.50;8.00;;;14.90;99.90;;;;;;5028039;28;20477;-77
2021/09/17 07:12:43;;;;;;;11.83;6.93;;;15.00;99.90;;;;;;5027914;28;20199;-77
2021/09/17 07:15:09;;;;;;;14.53;8.33;;;15.10;99.90;;;;;;5032070;28;21023;-78
2021/09/17 07:17:34;;;;;;;7.53;6.80;;;15.20;99.90;;;;;;5012452;28;20508;-77
2021/09/17 07:20:00;;;;;;;9.57;7.47;;;15.30;99.90;;;;;;5027133;28;20519;-78
2021/09/17 07:22:27;;;;;;;8.77;7.50;;;15.30;99.90;;;;;;5031859;28;20211;-78
2021/09/17 07:24:53;;;;;;;9.57;8.63;;;15.50;99.90;;;;;;5029782;28;20558;-76
2021/09/17 07:27:18;;;;;;;8.00;7.20;;;15.50;99.90;;;;;;5029616;28;20448;-78
2021/09/17 07:29:44;;;;;;;11.90;7.60;;;15.50;99.90;;;;;;5026355;28;20209;-78
2021/09/17 07:32:09;;;;;;;13.50;7.80;;;15.60;99.90;;;;;;5027858;28;20232;-75
2021/09/17 07:34:35;;;;;;;11.00;7.10;;;15.70;99.90;;;;;;5025861;28;20221;-76
2021/09/17 07:37:01;;;;;;;8.20;6.40;;;15.80;99.90;;;;;;5031837;28;20178;-77
2021/09/17 07:39:27;;;;;;;8.80;7.90;;;15.80;99.90;;;;;;5029157;28;20200;-75
2021/09/17 07:41:54;;;;;;;7.50;6.50;;;15.90;99.90;;;;;;5025138;28;20226;-75
2021/09/17 07:44:20;;;;;;;10.40;7.10;;;16.00;99.90;;;;;;5029576;28;20960;-77
2021/09/17 07:46:46;;;;;;;7.60;6.90;;;16.10;99.90;;;;;;5031752;28;20424;-77
2021/09/17 07:49:12;;;;;;;12.10;7.33;;;16.20;99.90;;;;;;5011763;28;20714;-78
2021/09/17 07:51:37;;;;;;;8.50;7.70;;;16.20;99.90;;;;;;5027472;28;20522;-78
2021/09/17 07:54:03;;;;;;;9.30;7.83;;;16.30;99.90;;;;;;5031505;28;20417;-78
2021/09/17 07:56:28;;;;;;;9.57;7.50;;;16.40;99.90;;;;;;5025261;28;20196;-78
2021/09/17 07:58:54;;;;;;;9.70;7.70;;;16.40;99.90;;;;;;5032281;28;20181;-78
2021/09/17 08:01:19;;;;;;;11.83;7.97;;;16.50;99.90;;;;;;5027823;28;20205;-78
2021/09/17 08:03:45;;;;;;;18.03;7.03;;;16.50;99.90;;;;;;5032118;28;20186;-78
2021/09/17 08:06:12;;;;;;;7.00;6.40;;;16.50;99.90;;;;;;5029753;28;20197;-78
2021/09/17 08:08:38;;;;;;;16.60;9.30;;;16.70;99.90;;;;;;5031788;28;20289;-79
2021/09/17 08:11:06;;;;;;;11.97;8.97;;;16.70;99.90;;;;;;5025939;28;20977;-78
2021/09/17 08:13:32;;;;;;;14.07;8.40;;;16.80;99.90;;;;;;5007704;28;20272;-78
2021/09/17 08:15:58;;;;;;;10.90;8.83;;;16.90;99.90;;;;;;5029482;28;21007;-77
2021/09/17 08:18:25;;;;;;;18.57;9.93;;;16.90;99.90;;;;;;5031409;28;20182;-77
2021/09/17 08:20:52;;;;;;;14.63;10.90;;;17.00;99.90;;;;;;5028287;28;20801;-77
2021/09/17 08:23:19;;;;;;;12.87;7.40;;;17.10;99.90;;;;;;5028980;28;20516;-78
2021/09/17 08:25:46;;;;;;;11.57;9.20;;;17.00;99.90;;;;;;5012834;28;20451;-77
2021/09/17 08:28:11;;;;;;;12.23;9.43;;;17.00;99.90;;;;;;5027800;28;20474;-78
2021/09/17 08:30:37;;;;;;;13.43;8.70;;;17.10;99.90;;;;;;5031122;28;20444;-77
2021/09/17 08:33:03;;;;;;;11.30;9.10;;;17.10;99.90;;;;;;5026020;28;20197;-79
2021/09/17 08:35:28;;;;;;;10.00;8.93;;;17.20;99.90;;;;;;5029031;28;20189;-76
2021/09/17 08:37:54;;;;;;;9.73;8.57;;;17.20;99.90;;;;;;5012517;28;20268;-77
2021/09/17 08:40:19;;;;;;;9.70;8.80;;;17.10;99.90;;;;;;5029147;28;20189;-77
2021/09/17 08:42:45;;;;;;;16.63;8.67;;;17.20;99.90;;;;;;5028625;28;20206;-77
2021/09/17 08:45:11;;;;;;;13.23;9.10;;;17.40;99.90;;;;;;5013405;28;20651;-77
2021/09/17 08:47:37;;;;;;;9.70;8.43;;;17.40;99.90;;;;;;5031515;28;20420;-77
2021/09/17 08:50:03;;;;;;;9.43;8.63;;;17.30;99.90;;;;;;5029289;28;20212;-79
2021/09/17 08:52:29;;;;;;;14.03;9.73;;;17.40;99.90;;;;;;5029100;28;20439;-77
2021/09/17 08:54:54;;;;;;;10.90;9.00;;;17.50;99.90;;;;;;5027743;28;20504;-75
2021/09/17 08:57:20;;;;;;;13.53;8.90;;;17.60;99.90;;;;;;5028723;28;20731;-77
2021/09/17 08:59:45;;;;;;;12.20;9.20;;;17.60;99.90;;;;;;5029194;28;20277;-76
2021/09/17 09:02:24;;;;;;;11.73;8.70;;;17.70;99.90;;;;;;5030354;28;20276;-77
2021/09/17 09:05:05;;;;;;;12.13;7.90;;;17.80;99.90;;;;;;5028646;28;20190;-77
2021/09/17 09:07:36;;;;;;;9.40;8.50;;;17.80;99.90;;;;;;5030721;28;20454;-78
2021/09/17 09:10:13;;;;;;;10.40;8.73;;;17.80;99.90;;;;;;5028703;28;20873;-78
2021/09/17 09:12:43;;;;;;;12.37;7.77;;;17.90;99.90;;;;;;5030431;28;20804;-78
2021/09/17 09:15:15;;;;;;;14.87;8.10;;;17.90;99.90;;;;;;5030151;28;20440;-77
2021/09/17 09:17:47;;;;;;;7.83;7.13;;;18.00;99.90;;;;;;5025372;28;20831;-77
2021/09/17 09:20:22;;;;;;;10.20;8.53;;;18.20;99.90;;;;;;5031776;28;20486;-78
2021/09/17 09:23:06;;;;;;;11.73;10.43;;;18.30;99.90;;;;;;5033594;28;20442;-78
2021/09/17 09:25:50;;;;;;;11.00;8.30;;;18.20;99.90;;;;;;5042128;28;20429;-76
2021/09/17 09:28:18;;;;;;;9.40;8.33;;;18.20;99.90;;;;;;5031479;28;20444;-77
2021/09/17 09:30:44;;;;;;;9.00;8.10;;;18.20;99.90;;;;;;5033746;28;20413;-77
2021/09/17 09:33:37;;;;;;;12.27;10.17;;;18.30;99.90;;;;;;5027144;28;20574;-76
2021/09/17 09:36:05;;;;;;;15.73;9.23;;;18.50;99.90;;;;;;5020917;28;20193;-76
2021/09/17 09:38:44;;;;;;;12.77;9.73;;;18.60;99.90;;;;;;5014165;28;20437;-77
2021/09/17 09:41:17;;;;;;;15.57;10.13;;;18.70;99.90;;;;;;5030255;28;20914;-78
2021/09/17 09:43:48;;;;;;;10.83;8.70;;;18.80;99.90;;;;;;5029363;28;20811;-78
2021/09/17 09:46:27;;;;;;;12.33;9.87;;;18.80;99.90;;;;;;5015641;28;20491;-77
2021/09/17 09:48:59;;;;;;;11.00;10.00;;;18.90;99.90;;;;;;5011607;28;20518;-77
2021/09/17 09:51:29;;;;;;;15.10;8.70;;;19.10;99.90;;;;;;5032835;28;20452;-78
2021/09/17 09:53:55;;;;;;;14.73;9.27;;;19.20;99.90;;;;;;5029133;28;20429;-78
2021/09/17 09:56:21;;;;;;;14.30;10.83;;;19.30;99.90;;;;;;5014822;28;20490;-77
2021/09/17 09:58:48;;;;;;;16.23;11.43;;;19.60;99.90;;;;;;5031374;28;20988;-77
2021/09/17 10:01:17;;;;;;;14.63;10.40;;;19.50;99.90;;;;;;5031748;28;20428;-78
2021/09/17 10:03:45;;;;;;;13.13;9.43;;;19.70;99.90;;;;;;5032908;28;20468;-78
2021/09/17 10:06:11;;;;;;;12.00;9.80;;;19.70;99.90;;;;;;5028988;28;20435;-79
2021/09/17 10:08:37;;;;;;;13.07;8.63;;;19.90;99.90;;;;;;5033022;28;20460;-78
2021/09/17 10:11:03;;;;;;;14.93;8.87;;;20.00;99.90;;;;;;5027501;28;20454;-78
2021/09/17 10:13:28;;;;;;;10.33;9.37;;;20.10;99.90;;;;;;5032467;28;20417;-78
2021/09/17 10:15:54;;;;;;;8.97;8.07;;;20.10;99.90;;;;;;5031493;28;20174;-78
2021/09/17 10:18:20;;;;;;;8.60;7.77;;;20.10;99.90;;;;;;5033488;28;20178;-79
2021/09/17 10:20:45;;;;;;;9.13;8.37;;;20.20;99.90;;;;;;5029888;28;20179;-78
2021/09/17 10:23:29;;;;;;;9.67;8.77;;;20.20;99.90;;;;;;5034419;28;20515;-78
2021/09/17 10:26:00;;;;;;;11.60;8.67;;;20.10;99.90;;;;;;5030999;28;20177;-77
2021/09/17 10:28:26;;;;;;;14.43;9.30;;;19.90;99.90;;;;;;5033643;28;20397;-78
2021/09/17 10:30:52;;;;;;;12.73;8.83;;;20.00;99.90;;;;;;5030021;28;20452;-78
2021/09/17 10:33:26;;;;;;;13.13;8.80;;;20.30;99.90;;;;;;5028791;28;20431;-76
2021/09/17 10:35:51;;;;;;;9.77;8.77;;;20.40;99.90;;;;;;5015037;28;20718;-79
2021/09/17 10:38:17;;;;;;;11.90;10.03;;;20.30;99.90;;;;;;5034680;28;20421;-78
2021/09/17 10:40:58;;;;;;;10.63;8.70;;;20.40;99.90;;;;;;5046144;28;20313;-77
2021/09/17 10:43:41;;;;;;;10.33;7.50;;;20.50;99.90;;;;;;5035871;28;20225;-78
2021/09/17 10:46:20;;;;;;;13.63;8.60;;;20.70;99.90;;;;;;5034020;28;20535;-78
2021/09/17 10:48:45;;;;;;;9.43;8.53;;;20.60;99.90;;;;;;5031346;28;20468;-78
2021/09/17 10:51:29;;;;;;;10.63;9.47;;;20.70;99.90;;;;;;5033200;28;20444;-77
2021/09/17 10:54:01;;;;;;;11.13;8.93;;;21.00;99.90;;;;;;5028230;28;20669;-78
2021/09/17 10:56:28;;;;;;;9.93;8.90;;;21.20;99.90;;;;;;5032589;28;20441;-79
2021/09/17 10:59:13;;;;;;;12.33;9.20;;;21.10;99.90;;;;;;5014166;28;20437;-77
2021/09/17 11:01:52;;;;;;;17.43;9.80;;;21.00;99.90;;;;;;5032449;28;20436;-77
2021/09/17 11:04:35;;;;;;;11.47;8.13;;;20.80;99.90;;;;;;5011859;28;20436;-77
2021/09/17 11:07:32;;;;;;;8.50;7.70;;;20.60;99.90;;;;;;5033010;28;20447;-78
2021/09/17 11:09:58;;;;;;;8.47;7.63;;;20.50;99.90;;;;;;5029115;28;20889;-77
2021/09/17 11:12:27;;;;;;;10.93;7.50;;;20.40;99.90;;;;;;5010579;28;20480;-77
2021/09/17 11:15:11;;;;;;;11.00;7.47;;;20.40;99.90;;;;;;5028272;28;20441;-78
2021/09/17 11:17:49;;;;;;;9.03;7.00;;;20.50;99.90;;;;;;4995249;28;20438;-78
2021/09/17 11:20:16;;;;;;;8.33;7.57;;;20.40;99.90;;;;;;5007087;28;20805;-79
2021/09/17 11:22:50;;;;;;;9.30;7.87;;;20.20;99.90;;;;;;5033056;28;20420;-78
2021/09/17 11:25:40;;;;;;;8.03;6.53;;;20.20;99.90;;;;;;5032239;28;20972;-78
2021/09/17 11:28:19;;;;;;;6.27;5.40;;;20.20;99.90;;;;;;5030832;28;20483;-78
2021/09/17 11:30:45;;;;;;;13.03;10.40;;;20.50;99.90;;;;;;5030946;28;20936;-79
2021/09/17 11:33:20;;;;;;;7.70;6.23;;;20.70;99.90;;;;;;5025582;28;20442;-78
2021/09/17 11:35:46;;;;;;;8.13;6.20;;;20.80;99.90;;;;;;5031049;28;20186;-80
2021/09/17 11:38:12;;;;;;;7.23;5.90;;;20.90;99.90;;;;;;5025964;28;20425;-79
2021/09/17 11:40:53;;;;;;;8.80;4.60;;;20.90;99.90;;;;;;5030567;28;20833;-75
2021/09/17 11:43:18;;;;;;;7.83;5.57;;;21.00;99.90;;;;;;5030103;28;20856;-80
2021/09/17 11:45:46;;;;;;;7.00;4.50;;;21.10;99.90;;;;;;5015580;28;20509;-79
2021/09/17 11:48:19;;;;;;;6.80;5.57;;;21.00;99.90;;;;;;5022237;28;20190;-80
2021/09/17 11:50:44;;;;;;;6.53;6.03;;;21.40;99.90;;;;;;5033852;28;20452;-79
2021/09/17 11:53:10;;;;;;;5.13;4.73;;;21.30;99.90;;;;;;5032543;28;20812;-80
2021/09/17 11:55:35;;;;;;;4.73;4.20;;;21.10;99.90;;;;;;5031789;28;20220;-80
2021/09/17 11:58:01;;;;;;;5.13;3.93;;;21.20;99.90;;;;;;5023048;28;20182;-80
2021/09/17 12:00:29;;;;;;;4.60;4.20;;;21.30;99.90;;;;;;5032673;28;20190;-80
2021/09/17 12:03:01;;;;;;;4.67;4.20;;;21.40;99.90;;;;;;5030665;28;20269;-79
2021/09/17 12:05:28;;;;;;;5.90;4.53;;;21.50;99.90;;;;;;5032793;28;20488;-79
2021/09/17 12:07:54;;;;;;;5.00;4.60;;;21.40;99.90;;;;;;5032671;28;20405;-80
2021/09/17 12:10:25;;;;;;;6.50;4.40;;;21.50;99.90;;;;;;5026238;28;20467;-80
2021/09/17 12:13:00;;;;;;;3.40;3.10;;;21.40;99.90;;;;;;5026912;28;20592;-79
2021/09/17 12:15:28;;;;;;;4.70;3.30;;;21.40;99.90;;;;;;5015136;28;20443;-79
2021/09/17 12:18:00;;;;;;;13.50;4.40;;;21.70;99.90;;;;;;4995257;28;20422;-78
2021/09/17 12:20:49;;;;;;;3.17;2.97;;;21.40;99.90;;;;;;5005956;28;20918;-78
2021/09/17 12:23:20;;;;;;;5.23;4.00;;;21.50;99.90;;;;;;5032007;28;20466;-80
2021/09/17 12:25:47;;;;;;;4.80;3.33;;;21.40;99.90;;;;;;5028875;28;20477;-79
2021/09/17 12:28:19;;;;;;;3.17;2.90;;;21.30;99.90;;;;;;5012795;28;20509;-79
2021/09/17 12:30:46;;;;;;;3.50;3.30;;;21.30;99.90;;;;;;5018567;28;20439;-79
2021/09/17 12:33:21;;;;;;;5.90;3.20;;;21.10;99.90;;;;;;5030776;28;20419;-79
2021/09/17 12:35:51;;;;;;;4.33;3.87;;;21.00;99.90;;;;;;5031197;28;20451;-79
2021/09/17 12:38:19;;;;;;;5.23;3.83;;;21.30;99.90;;;;;;5037656;28;20400;-79
2021/09/17 12:40:48;;;;;;;5.97;4.20;;;21.30;99.90;;;;;;5030919;28;20442;-78
2021/09/17 12:43:28;;;;;;;4.10;3.40;;;21.10;99.90;;;;;;5032218;28;20444;-79
2021/09/17 12:45:59;;;;;;;4.80;3.13;;;20.90;99.90;;;;;;5031594;28;20775;-79
2021/09/17 12:48:27;;;;;;;3.47;3.20;;;20.90;99.90;;;;;;5033217;28;20753;-79
2021/09/17 12:50:53;;;;;;;3.70;2.97;;;20.90;99.90;;;;;;5035998;28;20505;-80
2021/09/17 12:53:20;;;;;;;11.40;3.43;;;20.90;99.90;;;;;;5031127;28;20981;-79
2021/09/17 12:55:47;;;;;;;3.93;3.63;;;20.90;99.90;;;;;;5032051;28;20675;-79
2021/09/17 12:58:19;;;;;;;3.57;3.10;;;20.70;99.90;;;;;;5019230;28;20448;-80
2021/09/17 13:00:46;;;;;;;3.70;3.40;;;20.70;99.90;;;;;;5038923;28;20500;-79
2021/09/17 13:03:13;;;;;;;3.63;3.33;;;20.60;99.90;;;;;;5034298;28;20486;-80
2021/09/17 13:05:40;;;;;;;4.30;3.03;;;20.70;99.90;;;;;;5038743;28;20427;-80
2021/09/17 13:08:07;;;;;;;4.07;3.67;;;20.80;99.90;;;;;;5021063;28;20433;-80
2021/09/17 13:10:34;;;;;;;3.10;2.80;;;20.80;99.90;;;;;;5040222;28;21285;-80
2021/09/17 13:13:00;;;;;;;8.10;4.13;;;20.70;99.90;;;;;;5036304;28;20441;-79
2021/09/17 13:15:26;;;;;;;4.43;3.40;;;20.50;99.90;;;;;;5037034;28;20440;-79
2021/09/17 13:17:52;;;;;;;3.67;3.37;;;20.40;99.90;;;;;;5039023;28;20443;-79
2021/09/17 13:20:19;;;;;;;3.93;3.40;;;20.40;99.90;;;;;;5035040;28;20801;-80
2021/09/17 13:22:44;;;;;;;4.77;3.40;;;20.50;99.90;;;;;;5036936;28;20467;-79
2021/09/17 13:25:12;;;;;;;3.50;3.30;;;20.50;99.90;;;;;;5033050;28;20428;-80
2021/09/17 13:27:40;;;;;;;3.27;3.07;;;20.50;99.90;;;;;;5034698;28;20186;-80
2021/09/17 13:30:11;;;;;;;3.67;3.23;;;20.60;99.90;;;;;;5036780;28;20468;-79
2021/09/17 13:32:37;;;;;;;5.33;3.50;;;20.60;99.90;;;;;;5037729;28;20969;-80
2021/09/17 13:35:04;;;;;;;3.40;3.10;;;20.50;99.90;;;;;;5034589;28;20472;-79
2021/09/17 13:37:30;;;;;;;6.63;3.60;;;20.70;99.90;;;;;;5026570;28;20881;-80
2021/09/17 13:39:55;;;;;;;3.80;3.20;;;20.70;99.90;;;;;;5034488;28;20465;-79
2021/09/17 13:42:21;;;;;;;5.83;2.70;;;20.70;99.90;;;;;;5031341;28;20207;-80
2021/09/17 13:44:46;;;;;;;3.00;2.80;;;20.60;99.90;;;;;;5036444;28;20202;-79
2021/09/17 13:47:12;;;;;;;5.37;2.90;;;20.60;99.90;;;;;;5018113;28;20181;-80
2021/09/17 13:49:38;;;;;;;2.97;2.77;;;20.60;99.90;;;;;;5014591;28;20202;-80
2021/09/17 13:52:05;;;;;;;6.23;3.70;;;20.50;99.90;;;;;;5037023;28;20658;-80
2021/09/17 13:54:31;;;;;;;3.20;3.00;;;20.60;99.90;;;;;;5038645;28;20536;-80
2021/09/17 13:56:57;;;;;;;3.37;3.07;;;20.70;99.90;;;;;;5033705;28;20495;-79
2021/09/17 13:59:22;;;;;;;3.93;3.30;;;20.70;99.90;;;;;;5036519;28;20190;-80
2021/09/17 14:01:48;;;;;;;3.13;2.93;;;20.70;99.90;;;;;;5018105;28;20890;-79
2021/09/17 14:04:13;;;;;;;4.53;3.10;;;20.60;99.90;;;;;;5036307;28;20546;-80
2021/09/17 14:06:39;;;;;;;2.50;2.30;;;20.60;99.90;;;;;;5035291;28;20186;-79
2021/09/17 14:09:05;;;;;;;3.30;3.10;;;20.40;99.90;;;;;;5019037;28;20205;-80
2021/09/17 14:11:31;;;;;;;3.00;2.70;;;20.20;99.90;;;;;;5034201;28;20277;-80
2021/09/17 14:13:57;;;;;;;5.80;2.33;;;20.10;99.90;;;;;;5014159;28;20925;-79
2021/09/17 14:16:24;;;;;;;2.27;2.07;;;20.20;99.90;;;;;;5017457;28;20179;-79
2021/09/17 14:18:51;;;;;;;6.83;3.30;;;20.30;99.90;;;;;;5027177;28;20189;-80
2021/09/17 14:21:17;;;;;;;3.43;3.13;;;20.30;99.90;;;;;;5019285;28;20551;-79
2021/09/17 14:23:42;;;;;;;3.27;2.97;;;20.30;99.90;;;;;;5018441;28;20475;-78
2021/09/17 14:26:08;;;;;;;2.80;2.60;;;20.20;99.90;;;;;;5035797;28;20441;-79
2021/09/17 14:28:33;;;;;;;2.30;2.17;;;20.20;99.90;;;;;;5034792;28;20240;-80
2021/09/17 14:30:59;;;;;;;3.57;2.83;;;20.20;99.90;;;;;;5034698;28;20333;-80
2021/09/17 14:33:24;;;;;;;2.67;2.53;;;20.30;99.90;;;;;;5036028;28;20539;-80
2021/09/17 14:35:50;;;;;;;4.70;2.20;;;20.20;99.90;;;;;;5036054;28;20189;-79
2021/09/17 14:38:15;;;;;;;3.00;2.53;;;20.20;99.90;;;;;;5036464;28;20206;-80
2021/09/17 14:40:41;;;;;;;2.50;2.40;;;20.20;99.90;;;;;;5005599;28;20344;-79
2021/09/17 14:43:08;;;;;;;2.73;2.53;;;20.20;99.90;;;;;;5024088;28;20288;-80
2021/09/17 14:45:34;;;;;;;2.30;2.20;;;20.20;99.90;;;;;;5034255;28;20190;-79
2021/09/17 14:47:59;;;;;;;3.10;2.90;;;20.10;99.90;;;;;;5035815;28;20417;-80
2021/09/17 14:50:25;;;;;;;3.33;2.73;;;20.20;99.90;;;;;;5015460;28;20214;-79
2021/09/17 14:52:50;;;;;;;3.27;2.20;;;20.20;99.90;;;;;;5033042;28;20741;-80
2021/09/17 14:55:16;;;;;;;2.60;2.40;;;20.20;99.90;;;;;;5032613;28;20221;-80
2021/09/17 14:57:41;;;;;;;2.57;2.40;;;20.10;99.90;;;;;;5036321;28;20190;-79
2021/09/17 15:00:08;;;;;;;2.40;2.13;;;20.00;99.90;;;;;;5037167;28;20193;-80
2021/09/17 15:02:33;;;;;;;5.00;2.50;;;19.90;99.90;;;;;;5033696;28;20282;-79
2021/09/17 15:04:59;;;;;;;4.33;2.80;;;19.90;99.90;;;;;;5039837;28;20463;-79
2021/09/17 15:07:24;;;;;;;3.00;2.80;;;19.90;99.90;;;;;;5035829;28;20202;-79
2021/09/17 15:09:50;;;;;;;2.80;2.60;;;19.90;99.90;;;;;;5035874;28;20206;-79
2021/09/17 15:12:16;;;;;;;2.50;2.30;;;19.70;99.90;;;;;;5030366;28;20236;-79
2021/09/17 15:14:42;;;;;;;2.73;2.53;;;19.80;99.90;;;;;;5015649;28;20448;-78
2021/09/17 15:17:09;;;;;;;3.03;2.70;;;19.70;99.90;;;;;;5033754;28;20281;-79
2021/09/17 15:19:36;;;;;;;2.30;2.20;;;19.70;99.90;;;;;;5033780;28;20186;-79
2021/09/17 15:22:02;;;;;;;3.50;2.83;;;19.70;99.90;;;;;;5023406;28;20475;-79
2021/09/17 15:24:27;;;;;;;3.13;2.83;;;19.70;99.90;;;;;;5029688;28;20440;-79
2021/09/17 15:26:53;;;;;;;2.20;2.10;;;19.70;99.90;;;;;;5030574;28;20732;-79
2021/09/17 15:29:18;;;;;;;3.00;2.80;;;19.70;99.90;;;;;;5014423;28;20217;-78
2021/09/17 15:31:44;;;;;;;1.90;1.80;;;19.70;99.90;;;;;;5032848;28;20220;-79
2021/09/17 15:34:10;;;;;;;5.00;2.37;;;19.70;99.90;;;;;;5030160;28;20280;-79
2021/09/17 15:36:36;;;;;;;2.23;2.03;;;19.70;99.90;;;;;;5034023;28;20710;-79
2021/09/17 15:39:03;;;;;;;2.53;2.33;;;19.60;99.90;;;;;;5036734;28;20456;-78
2021/09/17 15:41:31;;;;;;;2.47;2.30;;;19.60;99.90;;;;;;5028818;28;20759;-79
2021/09/17 15:43:57;;;;;;;4.37;2.63;;;19.50;99.90;;;;;;5027065;28;20440;-79
2021/09/17 15:46:23;;;;;;;2.87;2.67;;;19.40;99.90;;;;;;5032977;28;20531;-80
2021/09/17 15:48:48;;;;;;;2.70;2.50;;;19.50;99.90;;;;;;5032919;28;20197;-78
2021/09/17 15:51:13;;;;;;;2.50;2.40;;;19.40;99.90;;;;;;5015369;28;20233;-78
2021/09/17 15:53:39;;;;;;;5.10;2.30;;;19.30;99.90;;;;;;5034508;28;20587;-80
2021/09/17 15:56:05;;;;;;;3.87;3.03;;;19.30;99.90;;;;;;5032508;28;20767;-79
2021/09/17 15:58:30;;;;;;;2.47;2.27;;;19.30;99.90;;;;;;5032006;28;20208;-79
2021/09/17 16:00:56;;;;;;;2.60;2.50;;;19.30;99.90;;;;;;5032030;28;20205;-79
2021/09/17 16:03:21;;;;;;;2.30;2.20;;;19.10;99.90;;;;;;5035901;28;20185;-78
2021/09/17 16:05:47;;;;;;;1.90;1.80;;;19.10;99.90;;;;;;5034236;28;20658;-78
2021/09/17 16:08:13;;;;;;;2.50;2.30;;;19.10;99.90;;;;;;5023861;28;20218;-80
2021/09/17 16:10:38;;;;;;;2.30;2.20;;;19.10;99.90;;;;;;5016972;28;20210;-79
2021/09/17 16:13:04;;;;;;;2.77;2.57;;;19.00;99.90;;;;;;5032853;28;20635;-79
2021/09/17 16:15:29;;;;;;;2.77;2.57;;;19.00;99.90;;;;;;5017596;28;20701;-79
2021/09/17 16:17:55;;;;;;;2.40;2.20;;;18.90;99.90;;;;;;5016204;28;20182;-79
2021/09/17 16:20:21;;;;;;;4.80;2.57;;;18.90;99.90;;;;;;5037668;28;20178;-80
2021/09/17 16:22:47;;;;;;;4.40;2.73;;;18.80;99.90;;;;;;5041417;28;20226;-79
2021/09/17 16:25:14;;;;;;;2.40;2.20;;;18.80;99.90;;;;;;5040231;28;20177;-79
2021/09/17 16:27:40;;;;;;;2.50;2.40;;;18.80;99.90;;;;;;5035408;28;20969;-79
2021/09/17 16:30:08;;;;;;;2.50;2.30;;;18.70;99.90;;;;;;5037427;28;20487;-79
2021/09/17 16:32:34;;;;;;;3.13;2.80;;;18.70;99.90;;;;;;5036113;28;20468;-79
2021/09/17 16:34:59;;;;;;;1.90;1.80;;;18.60;99.90;;;;;;5037106;28;20420;-79
2021/09/17 16:37:25;;;;;;;1.93;1.83;;;18.60;99.90;;;;;;5042034;28;20264;-76
2021/09/17 16:39:51;;;;;;;3.93;2.63;;;18.50;99.90;;;;;;5031538;28;20190;-76
2021/09/17 16:42:18;;;;;;;2.77;2.57;;;18.40;99.90;;;;;;5028581;28;20338;-76
2021/09/17 16:44:43;;;;;;;3.00;2.80;;;18.40;99.90;;;;;;5029725;28;20201;-77
2021/09/17 16:47:09;;;;;;;2.63;2.43;;;18.30;99.90;;;;;;5031286;28;21234;-76
2021/09/17 16:49:36;;;;;;;2.63;1.93;;;18.20;99.90;;;;;;5028176;28;20574;-76
2021/09/17 16:52:02;;;;;;;2.60;2.50;;;18.20;99.90;;;;;;5030572;28;20444;-76
2021/09/17 16:54:28;;;;;;;2.37;2.27;;;18.10;99.90;;;;;;5029827;28;20444;-77
2021/09/17 16:56:53;;;;;;;3.03;2.73;;;18.00;99.90;;;;;;5026925;28;20432;-78
2021/09/17 16:59:19;;;;;;;4.17;3.17;;;18.00;99.90;;;;;;5030594;28;20189;-77
2021/09/17 17:01:48;;;;;;;3.33;3.03;;;17.90;99.90;;;;;;5030731;28;20216;-77
2021/09/17 17:04:15;;;;;;;3.37;3.10;;;17.80;99.90;;;;;;5031614;28;20416;-78
2021/09/17 17:06:40;;;;;;;3.43;3.10;;;17.60;99.90;;;;;;5029473;28;20444;-76
2021/09/17 17:09:06;;;;;;;4.40;2.87;;;17.40;99.90;;;;;;5029208;28;20448;-77
2021/09/17 17:11:32;;;;;;;3.43;3.23;;;17.30;99.90;;;;;;5028402;28;20244;-76
2021/09/17 17:13:58;;;;;;;6.50;3.10;;;17.20;99.90;;;;;;5029157;28;20217;-75
2021/09/17 17:16:24;;;;;;;4.43;2.80;;;17.10;99.90;;;;;;5030127;28;20194;-77